Time;durP1;ratioP1;P1;durP2;ratioP2;P2;SDS_P1;SDS_P2;PMS_P1;PMS_P2;Temp;Humidity;BMP_temperature;BMP_pressure;BME280_temperature;BME280_humidity;BME280_pressure;Samples;Min_cycle;Max_cycle;Signal;HPM_P1;HPM_P2
2023/11/24 00:02:16;;;;;;;12.97;3.10;;;15.50;57.10;;;;;;5055232;28;20470;-77
2023/11/24 00:04:44;;;;;;;14.27;3.50;;;15.60;56.40;;;;;;5055340;28;21009;-78
2023/11/24 00:07:13;;;;;;;11.80;2.80;;;15.50;56.50;;;;;;5055068;28;20442;-79
2023/11/24 00:09:41;;;;;;;21.93;4.10;;;15.50;56.80;;;;;;5055750;28;20497;-78
2023/11/24 00:12:09;;;;;;;14.73;3.60;;;15.50;56.80;;;;;;5054717;28;20484;-79
2023/11/24 00:14:38;;;;;;;20.30;3.60;;;15.40;56.90;;;;;;5059254;28;20446;-80
2023/11/24 00:17:07;;;;;;;17.97;4.00;;;15.50;57.30;;;;;;5062872;28;20496;-79
2023/11/24 00:19:36;;;;;;;21.53;4.63;;;15.50;56.90;;;;;;5063464;28;20402;-79
2023/11/24 00:22:05;;;;;;;15.37;3.90;;;15.40;57.10;;;;;;5074625;28;20473;-79
2023/11/24 00:24:33;;;;;;;22.87;3.50;;;15.40;57.10;;;;;;5072278;28;20466;-80
2023/11/24 00:27:01;;;;;;;21.23;4.43;;;15.50;57.80;;;;;;5073841;28;20466;-79
2023/11/24 00:29:31;;;;;;;24.30;4.77;;;15.50;57.00;;;;;;5062132;28;20450;-79
2023/11/24 00:31:59;;;;;;;24.47;4.43;;;15.40;57.10;;;;;;5060863;28;20439;-79
2023/11/24 00:34:27;;;;;;;29.20;4.70;;;15.50;57.90;;;;;;5062941;28;20466;-80
2023/11/24 00:36:58;;;;;;;17.20;4.20;;;15.50;57.40;;;;;;5062790;28;20439;-80
2023/11/24 00:39:26;;;;;;;19.03;4.67;;;15.40;57.80;;;;;;5065770;28;20506;-79
2023/11/24 00:41:54;;;;;;;16.40;4.20;;;15.50;57.20;;;;;;5061016;28;20508;-81
2023/11/24 00:44:22;;;;;;;25.13;5.30;;;15.40;57.20;;;;;;5059767;28;20438;-79
2023/11/24 00:46:51;;;;;;;17.33;3.60;;;15.40;57.70;;;;;;5059160;28;20446;-79
2023/11/24 00:49:19;;;;;;;25.00;4.07;;;15.50;57.30;;;;;;5059116;28;20438;-79
2023/11/24 00:52:00;;;;;;;15.83;3.60;;;15.60;57.40;;;;;;5059113;28;20512;-79
2023/11/24 00:54:43;;;;;;;24.07;3.80;;;15.50;57.30;;;;;;5058373;28;20503;-79
2023/11/24 00:57:14;;;;;;;12.73;3.90;;;15.60;57.70;;;;;;5060432;28;20450;-79
2023/11/24 00:59:53;;;;;;;18.80;3.53;;;15.70;57.70;;;;;;5059737;28;20488;-79
2023/11/24 01:02:22;;;;;;;25.67;4.40;;;15.60;57.50;;;;;;5059774;28;20478;-79
2023/11/24 01:04:52;;;;;;;17.00;3.50;;;15.50;57.60;;;;;;5060566;28;20496;-79
2023/11/24 01:07:20;;;;;;;19.37;4.00;;;15.40;58.40;;;;;;5059533;28;20443;-79
2023/11/24 01:09:50;;;;;;;19.40;3.70;;;15.60;58.50;;;;;;5059492;28;20434;-79
2023/11/24 01:12:18;;;;;;;24.60;3.90;;;15.60;57.20;;;;;;5060755;28;20462;-79
2023/11/24 01:14:46;;;;;;;14.47;3.27;;;15.50;57.90;;;;;;5060387;28;20447;-79
2023/11/24 01:17:15;;;;;;;14.73;3.53;;;15.50;57.80;;;;;;5066128;28;20457;-79
2023/11/24 01:19:44;;;;;;;16.03;3.40;;;15.40;57.30;;;;;;5058403;28;20473;-80
2023/11/24 01:22:12;;;;;;;22.27;3.70;;;15.30;58.00;;;;;;5058547;28;20474;-80
2023/11/24 01:24:41;;;;;;;10.87;3.10;;;15.30;57.60;;;;;;5059643;28;20517;-80
2023/11/24 01:27:10;;;;;;;22.50;4.03;;;15.20;57.30;;;;;;5060893;28;20458;-80
2023/11/24 01:29:39;;;;;;;21.00;3.33;;;15.10;57.40;;;;;;5058496;28;20446;-80
2023/11/24 01:32:07;;;;;;;13.07;2.90;;;15.10;57.30;;;;;;5057427;28;20458;-79
2023/11/24 01:34:36;;;;;;;13.77;3.60;;;15.10;57.10;;;;;;5057282;28;20446;-79
2023/11/24 01:37:04;;;;;;;16.63;3.80;;;15.10;56.90;;;;;;5056811;28;20527;-80
2023/11/24 01:39:32;;;;;;;9.97;2.90;;;15.00;56.50;;;;;;5057056;28;20457;-80
2023/11/24 01:42:00;;;;;;;16.60;3.27;;;15.00;56.50;;;;;;5057406;28;20454;-79
2023/11/24 01:44:30;;;;;;;15.80;3.43;;;15.10;56.50;;;;;;5057365;28;20466;-79
2023/11/24 01:46:56;;;;;;;19.53;4.00;;;15.10;55.80;;;;;;5058439;28;20537;-79
2023/11/24 01:49:24;;;;;;;12.37;2.70;;;15.00;56.00;;;;;;5057473;28;20457;-80
2023/11/24 01:51:53;;;;;;;15.50;3.00;;;15.00;55.30;;;;;;5057268;28;20466;-79
2023/11/24 01:54:21;;;;;;;20.23;4.70;;;15.00;55.40;;;;;;5057841;28;20470;-79
2023/11/24 01:56:49;;;;;;;8.77;3.90;;;15.00;55.30;;;;;;5057386;28;20446;-79
2023/11/24 01:59:17;;;;;;;13.67;4.13;;;15.10;55.80;;;;;;5057226;28;20465;-79
2023/11/24 02:01:47;;;;;;;14.83;3.83;;;15.20;55.60;;;;;;5058134;28;20465;-79
2023/11/24 02:04:16;;;;;;;17.03;4.90;;;15.30;55.90;;;;;;5058756;28;20462;-80
2023/11/24 02:06:44;;;;;;;12.90;3.93;;;15.30;55.60;;;;;;5058735;28;20466;-79
2023/11/24 02:09:13;;;;;;;21.90;4.20;;;15.20;56.00;;;;;;5059906;28;20447;-80
2023/11/24 02:11:42;;;;;;;14.43;3.70;;;15.20;55.90;;;;;;5059941;28;20466;-80
2023/11/24 02:14:10;;;;;;;14.37;3.93;;;15.10;55.60;;;;;;5058083;28;20496;-80
2023/11/24 02:16:38;;;;;;;17.80;3.27;;;15.10;55.80;;;;;;5057600;28;20445;-80
2023/11/24 02:19:08;;;;;;;19.00;4.07;;;15.10;55.70;;;;;;5057349;28;20446;-80
2023/11/24 02:21:36;;;;;;;14.63;3.50;;;15.10;55.50;;;;;;5058002;28;20486;-79
2023/11/24 02:24:06;;;;;;;14.50;4.77;;;15.10;55.50;;;;;;5056324;28;20489;-79
2023/11/24 02:26:36;;;;;;;25.13;6.90;;;15.10;55.90;;;;;;5056792;28;20440;-80
2023/11/24 02:29:04;;;;;;;23.33;9.07;;;15.20;55.50;;;;;;5055361;28;20471;-80
2023/11/24 02:31:33;;;;;;;24.03;8.67;;;15.30;55.70;;;;;;5047186;28;20573;-79
2023/11/24 02:34:01;;;;;;;20.97;7.00;;;15.30;55.80;;;;;;5059635;28;20435;-80
2023/11/24 02:36:32;;;;;;;31.40;10.33;;;15.40;56.30;;;;;;5059820;28;20513;-79
2023/11/24 02:39:00;;;;;;;20.40;7.17;;;15.40;56.10;;;;;;5059308;28;20442;-79
2023/11/24 02:41:32;;;;;;;14.97;6.10;;;15.40;56.30;;;;;;5055556;28;20504;-78
2023/11/24 02:44:00;;;;;;;14.13;5.40;;;15.30;56.60;;;;;;5057541;28;20463;-79
2023/11/24 02:46:28;;;;;;;13.40;4.50;;;15.20;57.00;;;;;;5055910;28;20457;-78
2023/11/24 02:48:56;;;;;;;8.30;3.90;;;15.10;57.30;;;;;;5055745;28;20438;-79
2023/11/24 02:51:25;;;;;;;14.43;4.57;;;15.10;57.60;;;;;;5055772;28;20465;-79
2023/11/24 02:53:53;;;;;;;13.53;5.40;;;15.20;57.80;;;;;;5055363;28;20509;-79
2023/11/24 02:56:21;;;;;;;16.53;5.10;;;15.30;58.50;;;;;;5055380;28;20442;-78
2023/11/24 02:58:50;;;;;;;10.67;4.70;;;15.40;58.20;;;;;;5053403;28;20440;-77
2023/11/24 03:01:18;;;;;;;8.70;3.90;;;15.40;58.10;;;;;;5056529;28;20430;-79
2023/11/24 03:03:46;;;;;;;11.10;4.50;;;15.40;58.60;;;;;;5057009;28;20454;-79
2023/11/24 03:06:14;;;;;;;12.53;4.67;;;15.30;58.80;;;;;;5055793;28;20438;-78
2023/11/24 03:08:43;;;;;;;14.07;4.80;;;15.30;58.20;;;;;;5056729;28;20434;-79
2023/11/24 03:11:11;;;;;;;13.13;3.57;;;15.30;58.70;;;;;;5061952;28;20470;-79
2023/11/24 03:13:39;;;;;;;11.37;3.73;;;15.20;58.20;;;;;;5055686;28;20434;-79
2023/11/24 03:16:09;;;;;;;8.40;3.70;;;15.10;58.50;;;;;;5054748;28;20542;-78
2023/11/24 03:18:37;;;;;;;10.30;3.17;;;15.10;57.90;;;;;;5053654;28;20452;-78
2023/11/24 03:21:06;;;;;;;10.67;2.47;;;14.90;58.20;;;;;;5053088;28;20430;-78
2023/11/24 03:23:34;;;;;;;10.27;3.00;;;14.90;58.20;;;;;;5054363;28;20510;-79
2023/11/24 03:26:02;;;;;;;6.50;2.60;;;14.80;58.00;;;;;;5055655;28;20438;-79
2023/11/24 03:28:33;;;;;;;6.53;2.40;;;14.70;58.10;;;;;;5056029;28;20446;-79
2023/11/24 03:31:02;;;;;;;13.03;2.57;;;14.70;58.20;;;;;;5056538;28;20492;-78
2023/11/24 03:33:33;;;;;;;9.80;2.07;;;14.70;58.10;;;;;;5062556;28;20466;-78
2023/11/24 03:36:01;;;;;;;11.00;2.47;;;14.70;58.30;;;;;;5067686;28;20505;-78
2023/11/24 03:38:29;;;;;;;6.73;2.13;;;14.60;58.20;;;;;;5065884;28;20472;-78
2023/11/24 03:40:58;;;;;;;10.10;2.70;;;14.50;58.60;;;;;;5056150;28;20480;-78
2023/11/24 03:43:26;;;;;;;12.53;2.20;;;14.50;58.90;;;;;;5055541;28;20470;-78
2023/11/24 03:45:56;;;;;;;8.60;2.10;;;14.50;58.70;;;;;;5057220;28;20455;-80
2023/11/24 03:48:24;;;;;;;6.70;2.10;;;14.50;58.90;;;;;;5055724;28;20514;-79
2023/11/24 03:50:54;;;;;;;6.13;1.57;;;14.50;59.60;;;;;;5056305;28;20443;-79
2023/11/24 03:53:22;;;;;;;5.73;2.50;;;14.60;59.10;;;;;;5054390;28;20474;-78
2023/11/24 03:55:50;;;;;;;4.20;2.07;;;14.50;58.90;;;;;;5054962;28;20443;-79
2023/11/24 03:58:18;;;;;;;6.17;1.53;;;14.50;59.50;;;;;;5055020;28;20521;-78
2023/11/24 04:00:45;;;;;;;6.50;1.73;;;14.50;59.10;;;;;;5056419;28;20446;-79
2023/11/24 04:03:13;;;;;;;7.80;1.83;;;14.50;59.80;;;;;;5058649;28;20467;-79
2023/11/24 04:05:42;;;;;;;5.97;2.10;;;14.50;59.60;;;;;;5047472;28;20435;-78
2023/11/24 04:08:11;;;;;;;6.80;2.07;;;14.50;59.40;;;;;;5052185;28;20469;-79
2023/11/24 04:10:39;;;;;;;7.63;2.10;;;14.50;59.00;;;;;;5054083;28;20427;-79
2023/11/24 04:13:08;;;;;;;9.53;1.93;;;14.50;59.50;;;;;;5057221;28;20442;-78
2023/11/24 04:15:36;;;;;;;7.73;1.93;;;14.50;59.80;;;;;;5057472;28;20483;-78
2023/11/24 04:18:04;;;;;;;15.77;1.93;;;14.50;59.40;;;;;;5047257;28;20459;-79
2023/11/24 04:20:32;;;;;;;3.27;1.27;;;14.50;59.40;;;;;;5038319;28;20443;-79
2023/11/24 04:23:01;;;;;;;11.13;2.10;;;14.60;59.30;;;;;;5037834;28;21026;-79
2023/11/24 04:25:30;;;;;;;8.20;1.57;;;14.50;59.00;;;;;;5051913;28;20895;-79
2023/11/24 04:27:59;;;;;;;4.70;1.40;;;14.40;58.90;;;;;;5057543;28;20530;-79
2023/11/24 04:30:27;;;;;;;6.80;1.63;;;14.40;58.30;;;;;;5055474;28;20442;-79
2023/11/24 04:32:57;;;;;;;5.90;1.40;;;14.30;58.20;;;;;;5066406;28;20481;-79
2023/11/24 04:35:27;;;;;;;4.50;1.13;;;14.20;58.30;;;;;;5044558;28;20436;-79
2023/11/24 04:37:55;;;;;;;3.23;1.50;;;14.10;58.30;;;;;;5049047;28;20427;-79
2023/11/24 04:40:23;;;;;;;6.43;1.60;;;14.10;58.30;;;;;;5057487;28;20465;-80
2023/11/24 04:46:10;;;;;;;12.00;1.60;;;14.10;58.30;;;;;;5012652;28;20480;-80
2023/11/24 04:48:38;;;;;;;7.77;1.43;;;13.90;58.10;;;;;;5038534;28;20458;-80
2023/11/24 04:51:07;;;;;;;3.73;1.20;;;13.90;58.40;;;;;;5043753;28;20454;-80
2023/11/24 04:53:35;;;;;;;3.40;1.40;;;14.00;58.40;;;;;;5039068;28;20459;-80
2023/11/24 04:56:08;;;;;;;6.00;1.40;;;13.90;58.00;;;;;;5038489;28;20474;-80
2023/11/24 04:58:38;;;;;;;7.37;1.80;;;14.00;58.40;;;;;;5039682;28;20439;-80
2023/11/24 05:01:07;;;;;;;5.10;1.60;;;13.90;58.10;;;;;;5040987;28;20440;-80
2023/11/24 05:03:35;;;;;;;3.50;1.23;;;13.90;57.90;;;;;;5047780;28;20497;-80
2023/11/24 05:06:03;;;;;;;8.63;1.90;;;13.90;58.10;;;;;;5058350;28;20514;-79
2023/11/24 05:08:31;;;;;;;13.20;1.83;;;13.80;57.80;;;;;;5059218;28;20461;-79
2023/11/24 05:10:59;;;;;;;6.33;1.50;;;13.70;57.80;;;;;;5051067;28;20435;-79
2023/11/24 05:13:28;;;;;;;5.93;1.20;;;13.70;58.10;;;;;;5059903;28;20462;-79
2023/11/24 05:15:58;;;;;;;6.33;1.47;;;13.80;57.20;;;;;;5061354;28;20496;-80
2023/11/24 05:18:26;;;;;;;9.77;1.20;;;13.70;57.10;;;;;;5060539;28;20505;-79
2023/11/24 05:20:54;;;;;;;4.50;1.17;;;13.70;57.20;;;;;;5060682;28;20437;-80
2023/11/24 05:23:22;;;;;;;6.07;2.07;;;13.70;57.40;;;;;;5061025;28;20489;-79
2023/11/24 05:25:49;;;;;;;7.60;1.63;;;13.70;57.50;;;;;;5056929;28;20497;-80
2023/11/24 05:28:18;;;;;;;6.20;1.70;;;13.70;56.90;;;;;;5060787;28;20461;-78
2023/11/24 05:30:46;;;;;;;6.97;1.60;;;13.70;57.00;;;;;;5061033;28;20439;-79
2023/11/24 05:33:16;;;;;;;5.50;1.50;;;13.70;56.70;;;;;;5059780;28;20451;-80
2023/11/24 05:35:43;;;;;;;7.07;1.50;;;13.70;57.00;;;;;;5058100;28;20426;-79
2023/11/24 05:38:11;;;;;;;7.93;1.40;;;13.60;56.40;;;;;;5057739;28;20517;-79
2023/11/24 05:40:39;;;;;;;6.03;1.30;;;13.60;56.70;;;;;;5058923;28;20504;-80
2023/11/24 05:43:07;;;;;;;7.00;1.47;;;13.60;56.90;;;;;;5058303;28;20494;-80
2023/11/24 05:45:35;;;;;;;6.70;1.30;;;13.60;56.80;;;;;;5057651;28;20462;-79
2023/11/24 05:48:03;;;;;;;7.90;2.10;;;13.60;56.40;;;;;;5057372;28;20430;-79
2023/11/24 05:50:32;;;;;;;4.30;1.27;;;13.50;56.50;;;;;;5056689;28;20494;-79
2023/11/24 05:53:01;;;;;;;6.53;1.60;;;13.60;57.30;;;;;;5059203;28;20446;-79
2023/11/24 05:55:28;;;;;;;8.30;1.57;;;13.70;56.60;;;;;;5058605;28;20497;-79
2023/11/24 05:57:56;;;;;;;8.23;1.43;;;13.70;56.40;;;;;;5058144;28;20437;-80
2023/11/24 06:00:25;;;;;;;11.20;1.53;;;13.60;56.70;;;;;;5055490;28;20526;-79
2023/11/24 06:02:53;;;;;;;4.73;1.47;;;13.70;56.90;;;;;;5053493;28;20473;-79
2023/11/24 06:05:21;;;;;;;11.23;1.87;;;13.70;57.00;;;;;;5051519;28;20989;-79
2023/11/24 06:07:51;;;;;;;4.80;1.80;;;13.70;57.20;;;;;;5057726;28;20446;-78
2023/11/24 06:10:22;;;;;;;7.43;1.97;;;13.80;57.70;;;;;;5046993;28;20435;-79
2023/11/24 06:12:50;;;;;;;12.57;2.17;;;13.80;57.00;;;;;;5054598;28;20490;-80
2023/11/24 06:15:18;;;;;;;7.73;1.73;;;13.70;57.40;;;;;;5057016;28;20543;-79
2023/11/24 06:17:48;;;;;;;5.73;1.43;;;13.70;58.00;;;;;;5040743;28;20509;-79
2023/11/24 06:20:16;;;;;;;4.67;1.60;;;13.80;57.40;;;;;;5056202;28;20446;-78
2023/11/24 06:22:44;;;;;;;7.50;2.03;;;13.80;57.40;;;;;;5046086;28;20458;-79
2023/11/24 06:25:14;;;;;;;6.03;1.50;;;13.80;57.40;;;;;;5039181;28;20489;-79
2023/11/24 06:27:43;;;;;;;7.03;2.10;;;13.80;57.40;;;;;;5055628;28;20431;-79
2023/11/24 06:30:12;;;;;;;6.93;1.80;;;13.70;57.20;;;;;;5042763;28;20431;-79
2023/11/24 06:32:40;;;;;;;12.73;2.50;;;13.80;57.60;;;;;;5044238;28;20553;-80
2023/11/24 06:35:10;;;;;;;7.23;2.57;;;14.00;57.10;;;;;;5049559;28;20435;-80
2023/11/24 06:37:38;;;;;;;7.60;2.13;;;13.90;56.70;;;;;;5049854;28;20436;-79
2023/11/24 06:40:11;;;;;;;7.00;2.03;;;13.70;56.50;;;;;;5044048;28;20484;-79
2023/11/24 06:42:41;;;;;;;10.30;4.20;;;13.80;57.70;;;;;;5053008;28;20972;-80
2023/11/24 06:45:12;;;;;;;9.17;3.17;;;13.80;56.40;;;;;;5048836;28;20497;-79
2023/11/24 06:47:40;;;;;;;10.87;3.50;;;13.70;56.40;;;;;;5052937;28;20423;-79
2023/11/24 06:50:09;;;;;;;12.23;2.83;;;13.60;56.60;;;;;;5063131;28;20454;-79
2023/11/24 06:52:37;;;;;;;15.57;3.33;;;13.60;57.20;;;;;;5060824;28;20505;-80
2023/11/24 06:55:06;;;;;;;8.33;3.30;;;13.60;56.40;;;;;;5039055;28;20455;-80
2023/11/24 06:57:35;;;;;;;7.80;3.10;;;13.60;56.50;;;;;;5056155;28;20462;-80
2023/11/24 07:00:07;;;;;;;8.13;2.50;;;13.50;56.10;;;;;;5055831;28;20530;-79
2023/11/24 07:02:36;;;;;;;3.60;2.00;;;13.50;56.40;;;;;;5044045;28;20470;-81
2023/11/24 07:05:05;;;;;;;4.33;2.17;;;13.50;56.20;;;;;;5055004;28;20976;-80
2023/11/24 07:07:33;;;;;;;7.43;2.30;;;13.60;56.40;;;;;;5048568;28;20450;-80
2023/11/24 07:10:01;;;;;;;8.10;2.17;;;13.60;55.80;;;;;;5051968;28;20447;-79
2023/11/24 07:12:31;;;;;;;8.03;2.43;;;13.50;56.00;;;;;;5057762;28;20553;-78
2023/11/24 07:15:03;;;;;;;12.10;2.00;;;13.50;56.60;;;;;;5060861;28;20422;-78
2023/11/24 07:17:32;;;;;;;7.80;2.30;;;13.50;55.50;;;;;;5049033;28;20430;-78
2023/11/24 07:20:00;;;;;;;4.40;1.97;;;13.50;55.60;;;;;;5055245;28;20469;-79
2023/11/24 07:22:30;;;;;;;11.07;2.60;;;13.50;55.60;;;;;;5049706;28;20455;-79
2023/11/24 07:24:57;;;;;;;13.87;2.00;;;13.50;56.20;;;;;;5036854;28;20462;-79
2023/11/24 07:27:27;;;;;;;6.23;1.80;;;13.40;55.20;;;;;;5052913;28;20468;-79
2023/11/24 07:29:58;;;;;;;9.73;1.90;;;13.40;55.50;;;;;;5055811;28;20434;-80
2023/11/24 07:32:28;;;;;;;9.77;2.07;;;13.40;55.40;;;;;;5055259;28;20453;-80
2023/11/24 07:34:57;;;;;;;6.50;1.80;;;13.50;55.20;;;;;;5055106;28;20431;-80
2023/11/24 07:37:26;;;;;;;8.63;2.00;;;13.50;55.00;;;;;;5058764;28;20461;-80
2023/11/24 07:39:55;;;;;;;5.57;1.73;;;13.50;54.90;;;;;;5034587;28;20502;-79
2023/11/24 07:42:23;;;;;;;11.47;2.13;;;13.50;54.70;;;;;;5058373;28;20454;-80
2023/11/24 07:44:51;;;;;;;10.67;2.03;;;13.40;55.10;;;;;;5059078;28;20476;-80
2023/11/24 07:47:20;;;;;;;14.63;2.27;;;13.50;55.20;;;;;;5057762;28;20462;-79
2023/11/24 07:49:48;;;;;;;6.53;2.30;;;13.40;55.00;;;;;;5058733;28;20465;-79
2023/11/24 07:52:17;;;;;;;9.50;2.53;;;13.40;54.70;;;;;;5058252;28;20553;-80
2023/11/24 07:54:45;;;;;;;5.43;2.10;;;13.40;54.60;;;;;;5053007;28;20439;-80
2023/11/24 07:57:14;;;;;;;11.73;1.93;;;13.40;54.60;;;;;;5042313;28;20439;-79
2023/11/24 07:59:42;;;;;;;10.73;2.40;;;13.40;54.30;;;;;;5046030;28;20937;-80
2023/11/24 08:02:11;;;;;;;9.30;2.40;;;13.40;54.60;;;;;;5054635;28;20540;-80
2023/11/24 08:04:40;;;;;;;8.03;1.63;;;13.50;55.50;;;;;;5056444;28;20500;-80
2023/11/24 08:07:09;;;;;;;11.83;3.13;;;13.60;54.20;;;;;;5043615;28;20547;-80
2023/11/24 08:09:38;;;;;;;6.47;1.80;;;13.50;53.90;;;;;;5053529;28;20463;-80
2023/11/24 08:12:08;;;;;;;8.97;1.90;;;13.60;53.90;;;;;;5052496;28;20498;-80
2023/11/24 08:14:41;;;;;;;9.40;1.97;;;13.70;54.10;;;;;;5049390;28;20434;-79
2023/11/24 08:17:09;;;;;;;6.73;1.87;;;13.80;54.50;;;;;;5053717;28;20427;-77
2023/11/24 08:19:37;;;;;;;8.33;1.80;;;13.90;53.70;;;;;;5040018;28;20446;-77
2023/11/24 08:22:05;;;;;;;6.00;2.27;;;13.90;53.40;;;;;;5045393;28;20508;-77
2023/11/24 08:24:34;;;;;;;10.77;2.37;;;13.90;54.10;;;;;;5055435;28;20439;-78
2023/11/24 08:27:04;;;;;;;7.97;2.10;;;13.90;54.20;;;;;;5055483;28;20462;-77
2023/11/24 08:29:33;;;;;;;7.03;2.17;;;14.00;54.30;;;;;;5058980;28;20453;-77
2023/11/24 08:32:01;;;;;;;11.50;2.20;;;14.20;53.60;;;;;;5064170;28;20462;-78
2023/11/24 08:34:29;;;;;;;8.10;2.30;;;14.20;53.40;;;;;;5056453;28;20446;-78
2023/11/24 08:37:01;;;;;;;8.00;2.43;;;14.20;54.30;;;;;;5050564;28;20526;-77
2023/11/24 08:39:29;;;;;;;4.77;1.77;;;14.40;54.00;;;;;;5055280;28;20521;-77
2023/11/24 08:41:58;;;;;;;7.60;1.83;;;14.50;54.00;;;;;;5048112;28;20458;-77
2023/11/24 08:44:27;;;;;;;9.93;1.90;;;14.50;53.80;;;;;;5045263;28;20474;-78
2023/11/24 08:46:56;;;;;;;10.17;2.30;;;14.50;54.50;;;;;;5043540;28;20477;-79
2023/11/24 08:49:24;;;;;;;7.47;2.23;;;14.50;54.10;;;;;;5043914;28;20442;-79
2023/11/24 08:51:52;;;;;;;9.80;2.57;;;14.50;54.30;;;;;;5052284;28;20490;-79
2023/11/24 08:54:21;;;;;;;15.57;3.13;;;14.50;54.30;;;;;;5050440;28;20482;-79
2023/11/24 08:56:50;;;;;;;14.00;4.17;;;14.50;53.90;;;;;;5056557;28;20985;-79
2023/11/24 08:59:19;;;;;;;12.97;4.70;;;14.50;54.00;;;;;;5057014;28;20471;-79
2023/11/24 09:01:50;;;;;;;8.60;3.83;;;14.60;53.70;;;;;;5041569;28;20529;-78
2023/11/24 09:04:20;;;;;;;7.90;3.07;;;14.60;53.30;;;;;;5052704;28;20431;-78
2023/11/24 09:06:50;;;;;;;8.00;2.87;;;14.70;53.30;;;;;;5045420;28;20466;-79
2023/11/24 09:09:18;;;;;;;8.23;2.90;;;14.80;53.30;;;;;;5057452;28;20439;-79
2023/11/24 09:11:46;;;;;;;9.53;2.00;;;14.90;53.00;;;;;;5056599;28;20447;-78
2023/11/24 09:14:14;;;;;;;9.10;2.40;;;14.90;52.90;;;;;;5047245;28;20438;-79
2023/11/24 09:16:42;;;;;;;3.73;1.87;;;14.90;52.80;;;;;;5056463;28;20437;-79
2023/11/24 09:19:12;;;;;;;9.53;2.30;;;14.90;52.70;;;;;;5047269;28;20439;-79
2023/11/24 09:21:40;;;;;;;11.00;2.20;;;14.90;52.60;;;;;;5042963;28;20525;-79
2023/11/24 09:24:10;;;;;;;6.60;2.20;;;15.00;52.50;;;;;;5047169;28;20938;-78
2023/11/24 09:26:39;;;;;;;9.90;2.80;;;15.10;52.20;;;;;;5055854;28;20502;-78
2023/11/24 09:29:07;;;;;;;6.90;2.07;;;15.20;52.10;;;;;;5037036;28;20443;-79
2023/11/24 09:31:36;;;;;;;10.53;2.27;;;15.30;52.10;;;;;;5051322;28;20860;-77
2023/11/24 09:34:05;;;;;;;10.60;2.10;;;15.30;51.50;;;;;;5046696;28;20439;-78
2023/11/24 09:36:34;;;;;;;10.03;2.70;;;15.40;51.40;;;;;;5056721;28;20443;-79
2023/11/24 09:39:04;;;;;;;8.53;2.43;;;15.10;54.70;;;;;;5052212;28;20454;-78
2023/11/24 09:41:32;;;;;;;6.03;1.90;;;14.50;58.50;;;;;;5044619;28;20431;-77
2023/11/24 09:44:00;;;;;;;12.60;2.10;;;14.00;57.00;;;;;;5045466;28;20527;-76
2023/11/24 09:46:28;;;;;;;10.50;2.10;;;14.70;57.20;;;;;;5043464;28;20812;-75
2023/11/24 09:49:15;;;;;;;9.17;2.53;;;15.40;55.90;;;;;;5035253;28;20470;-77
2023/11/24 09:51:45;;;;;;;8.90;1.93;;;15.90;54.80;;;;;;5051702;28;20494;-76
2023/11/24 09:54:12;;;;;;;8.93;2.13;;;16.20;54.20;;;;;;5056272;28;20430;-77
2023/11/24 09:56:43;;;;;;;8.50;2.10;;;16.40;53.80;;;;;;5061878;28;20461;-78
2023/11/24 09:59:12;;;;;;;9.30;1.90;;;16.60;53.50;;;;;;5053325;28;20503;-77
2023/11/24 10:01:40;;;;;;;6.73;1.53;;;16.70;53.30;;;;;;5054348;28;20462;-78
2023/11/24 10:04:10;;;;;;;5.80;1.80;;;16.90;53.60;;;;;;5053887;28;20442;-77
2023/11/24 10:06:39;;;;;;;12.20;2.50;;;17.20;53.80;;;;;;5055061;28;20466;-77
2023/11/24 10:09:10;;;;;;;4.97;1.47;;;17.50;53.50;;;;;;5053784;28;20445;-77
2023/11/24 10:11:39;;;;;;;5.83;2.10;;;17.60;53.20;;;;;;5054235;28;20463;-77
2023/11/24 10:14:11;;;;;;;10.90;2.13;;;17.80;53.00;;;;;;5054775;28;20481;-76
2023/11/24 10:16:41;;;;;;;8.20;1.80;;;17.80;52.60;;;;;;5054793;28;20484;-78
2023/11/24 10:19:14;;;;;;;3.83;1.40;;;17.80;52.70;;;;;;5047638;28;20506;-78
2023/11/24 10:21:48;;;;;;;4.67;1.70;;;17.70;52.60;;;;;;5047378;28;20455;-76
2023/11/24 10:24:18;;;;;;;8.10;1.80;;;17.70;52.80;;;;;;5040252;28;20442;-77
2023/11/24 10:26:45;;;;;;;6.10;1.57;;;17.70;53.00;;;;;;5050245;28;20450;-77
2023/11/24 10:29:15;;;;;;;5.33;1.60;;;17.80;53.20;;;;;;5052498;28;20446;-77
2023/11/24 10:31:44;;;;;;;4.47;1.90;;;17.80;53.40;;;;;;5038590;28;20455;-77
2023/11/24 10:34:12;;;;;;;6.10;2.00;;;18.00;53.60;;;;;;5056683;28;20493;-78
2023/11/24 10:36:40;;;;;;;12.33;1.97;;;18.10;53.60;;;;;;5051288;28;20531;-78
2023/11/24 10:39:12;;;;;;;3.13;1.70;;;18.20;53.50;;;;;;5052552;28;21028;-78
2023/11/24 10:41:42;;;;;;;5.30;1.53;;;18.10;53.60;;;;;;5049219;28;20480;-77
2023/11/24 10:44:11;;;;;;;9.90;1.87;;;18.10;53.70;;;;;;5056046;28;20426;-77
2023/11/24 10:46:43;;;;;;;4.30;1.40;;;18.20;53.80;;;;;;5053261;28;20465;-77
2023/11/24 10:49:15;;;;;;;7.60;1.80;;;18.10;53.80;;;;;;5052933;28;20462;-76
2023/11/24 10:51:45;;;;;;;4.33;1.40;;;18.00;54.00;;;;;;5045553;28;20458;-77
2023/11/24 10:54:16;;;;;;;9.57;2.27;;;18.00;54.40;;;;;;5051933;28;20489;-77
2023/11/24 10:56:45;;;;;;;23.97;1.97;;;17.90;54.50;;;;;;5050090;28;20468;-77
2023/11/24 10:59:13;;;;;;;6.63;1.60;;;17.90;54.50;;;;;;5051424;28;20435;-78
2023/11/24 11:01:41;;;;;;;4.53;1.63;;;17.80;54.50;;;;;;5052264;28;20504;-78
2023/11/24 11:04:11;;;;;;;6.47;1.90;;;17.70;54.60;;;;;;5054990;28;20465;-77
2023/11/24 11:06:43;;;;;;;5.00;1.40;;;17.70;54.70;;;;;;5044077;28;20436;-78
2023/11/24 11:09:23;;;;;;;5.70;1.57;;;17.70;54.80;;;;;;5050214;28;20481;-77
2023/11/24 11:12:30;;;;;;;7.67;1.90;;;17.70;54.90;;;;;;5052538;28;20459;-78
2023/11/24 11:14:59;;;;;;;2.03;1.30;;;17.70;55.00;;;;;;5009520;28;20430;-78
2023/11/24 11:17:27;;;;;;;4.83;1.90;;;17.80;55.30;;;;;;5053638;28;20458;-78
2023/11/24 11:19:58;;;;;;;7.27;2.40;;;18.00;55.90;;;;;;5044257;28;20905;-78
2023/11/24 11:22:29;;;;;;;9.20;3.00;;;18.00;54.90;;;;;;5056682;28;20466;-78
2023/11/24 11:25:32;;;;;;;9.40;2.97;;;18.10;55.50;;;;;;5052958;28;20442;-79
2023/11/24 11:28:42;;;;;;;14.63;4.90;;;18.50;56.20;;;;;;5051351;28;20474;-78
2023/11/24 11:31:22;;;;;;;8.50;4.07;;;19.00;56.30;;;;;;5052426;28;20538;-79
2023/11/24 11:33:50;;;;;;;9.90;4.77;;;19.30;55.60;;;;;;5054716;28;20472;-78
2023/11/24 11:36:20;;;;;;;12.10;4.70;;;19.50;55.30;;;;;;5047214;28;20446;-79
2023/11/24 11:38:53;;;;;;;12.73;4.77;;;19.70;55.00;;;;;;5046976;28;20538;-81
2023/11/24 11:41:37;;;;;;;11.40;5.70;;;19.70;54.50;;;;;;5052833;28;20450;-79
2023/11/24 11:44:17;;;;;;;9.97;4.97;;;19.70;54.80;;;;;;5041796;28;20436;-78
2023/11/24 11:47:10;;;;;;;15.80;5.20;;;19.70;54.70;;;;;;5038912;28;20500;-78
2023/11/24 11:49:40;;;;;;;11.60;5.33;;;19.80;54.60;;;;;;5052756;28;20434;-77
2023/11/24 11:52:11;;;;;;;9.20;4.60;;;19.80;54.80;;;;;;5052097;28;20462;-80
2023/11/24 11:54:40;;;;;;;12.60;5.50;;;20.10;55.50;;;;;;5055207;28;20434;-79
2023/11/24 11:59:54;;;;;;;9.73;5.00;;;20.40;54.60;;;;;;5048558;28;20445;-78
2023/11/24 12:02:24;;;;;;;10.97;5.50;;;20.40;54.20;;;;;;5052332;28;20489;-76
2023/11/24 12:04:53;;;;;;;12.97;6.07;;;20.20;53.80;;;;;;5046875;28;20443;-76
2023/11/24 12:07:22;;;;;;;13.70;5.97;;;20.10;54.60;;;;;;5037904;28;20497;-76
2023/11/24 12:09:50;;;;;;;10.30;5.77;;;19.90;55.00;;;;;;5044420;28;20453;-78
2023/11/24 12:12:22;;;;;;;12.90;5.73;;;19.80;55.10;;;;;;5049978;28;20491;-76
2023/11/24 12:14:54;;;;;;;12.17;5.10;;;19.80;55.80;;;;;;5048133;28;20514;-75
2023/11/24 12:17:24;;;;;;;20.50;6.37;;;20.10;56.20;;;;;;5042950;28;20427;-77
2023/11/24 12:19:53;;;;;;;13.60;5.80;;;20.10;55.40;;;;;;5061261;22;20469;-78
2023/11/24 12:22:21;;;;;;;12.23;5.47;;;20.10;55.40;;;;;;5044847;28;20477;-76
2023/11/24 12:24:50;;;;;;;11.50;5.90;;;19.90;55.40;;;;;;5055981;28;20456;-76
2023/11/24 12:27:18;;;;;;;13.93;6.07;;;19.80;55.70;;;;;;5051804;28;20505;-76
2023/11/24 12:29:51;;;;;;;15.63;6.10;;;19.50;56.40;;;;;;5037514;28;20539;-77
2023/11/24 12:32:21;;;;;;;17.03;6.00;;;19.30;57.00;;;;;;5026432;28;21018;-75
2023/11/24 12:34:51;;;;;;;14.40;5.77;;;19.20;56.90;;;;;;5025930;28;20459;-79
2023/11/24 12:37:20;;;;;;;18.90;6.40;;;19.00;57.50;;;;;;5028761;28;20456;-76
2023/11/24 12:39:48;;;;;;;9.63;5.23;;;18.90;58.00;;;;;;5026668;28;20509;-74
2023/11/24 12:42:16;;;;;;;13.50;5.50;;;18.80;58.10;;;;;;5026425;28;20472;-77
2023/11/24 12:44:46;;;;;;;12.13;5.10;;;18.90;58.00;;;;;;5020112;28;20463;-77
2023/11/24 12:47:14;;;;;;;14.87;5.20;;;19.00;57.90;;;;;;5025968;28;20554;-76
2023/11/24 12:50:05;;;;;;;12.30;5.20;;;18.90;57.80;;;;;;5027686;28;20551;-76
2023/11/24 12:52:35;;;;;;;13.47;5.23;;;18.80;58.00;;;;;;5032427;28;20466;-77
2023/11/24 12:55:07;;;;;;;13.40;5.20;;;18.60;58.70;;;;;;5023343;28;20494;-76
2023/11/24 12:57:35;;;;;;;10.70;4.60;;;18.60;58.40;;;;;;5028423;28;20506;-75
2023/11/24 13:00:09;;;;;;;11.60;5.00;;;18.70;58.60;;;;;;5034183;28;20468;-77
2023/11/24 13:02:39;;;;;;;11.27;4.70;;;18.80;58.20;;;;;;5034070;28;20500;-76